createdAt,value
2017-12-08T00:01:58.357Z,25.80
2017-12-08T00:04:24.562Z,27.03
2017-12-08T00:06:51.081Z,28.90
2017-12-08T00:09:17.247Z,36.07
2017-12-08T00:11:43.495Z,21.73
2017-12-08T00:14:10.457Z,27.37
2017-12-08T00:16:37.404Z,24.03
2017-12-08T00:19:03.629Z,23.40
2017-12-08T00:21:29.906Z,27.60
2017-12-08T00:23:56.118Z,28.23
2017-12-08T00:26:22.345Z,19.40
2017-12-08T00:28:48.573Z,22.27
2017-12-08T00:31:14.779Z,38.33
2017-12-08T00:33:40.978Z,24.30
2017-12-08T00:36:07.261Z,23.03
2017-12-08T00:38:33.461Z,30.07
2017-12-08T00:40:59.645Z,31.30
2017-12-08T00:43:25.891Z,21.23
2017-12-08T00:45:52.827Z,26.70
2017-12-08T00:48:19.057Z,25.27
2017-12-08T00:50:45.271Z,32.77
2017-12-08T00:53:11.527Z,23.57
2017-12-08T00:55:37.909Z,19.07
2017-12-08T00:58:04.191Z,30.50
2017-12-08T01:00:30.453Z,24.87
2017-12-08T01:02:57.421Z,21.83
2017-12-08T01:05:23.644Z,26.97
2017-12-08T01:07:49.879Z,29.93
2017-12-08T01:10:16.819Z,34.97
2017-12-08T01:12:43.052Z,21.77
2017-12-08T01:15:09.298Z,36.37
2017-12-08T01:17:36.217Z,23.17
2017-12-08T01:20:02.448Z,26.10
2017-12-08T01:22:28.652Z,28.33
2017-12-08T01:24:54.866Z,23.33
2017-12-08T01:27:21.160Z,21.80
2017-12-08T01:29:47.373Z,24.07
2017-12-08T01:32:13.585Z,26.57
2017-12-08T01:34:39.926Z,19.43
2017-12-08T01:37:06.154Z,28.93
2017-12-08T01:39:32.377Z,33.77
2017-12-08T01:41:58.606Z,33.27
2017-12-08T01:44:24.803Z,22.43
2017-12-08T01:46:51.023Z,23.13
2017-12-08T01:49:17.267Z,32.17
2017-12-08T01:51:43.518Z,28.00
2017-12-08T01:54:10.570Z,24.60
2017-12-08T01:56:37.061Z,38.70
2017-12-08T01:59:03.263Z,36.57
2017-12-08T02:01:29.461Z,41.70
2017-12-08T02:03:55.686Z,33.00
2017-12-08T02:06:21.922Z,27.93
2017-12-08T02:08:48.165Z,34.07
2017-12-08T02:11:14.393Z,29.63
2017-12-08T02:13:40.597Z,37.53
2017-12-08T02:16:06.850Z,25.17
2017-12-08T02:18:33.042Z,30.90
2017-12-08T02:20:59.242Z,29.23
2017-12-08T02:23:25.500Z,27.37
2017-12-08T02:25:52.441Z,25.87
2017-12-08T02:28:18.686Z,24.27
2017-12-08T02:30:45.639Z,20.00
2017-12-08T02:33:11.865Z,29.77
2017-12-08T02:35:38.866Z,34.80
2017-12-08T02:38:05.077Z,35.23
2017-12-08T02:40:31.284Z,25.90
2017-12-08T02:42:57.545Z,25.60
2017-12-08T02:45:23.797Z,24.37
2017-12-08T02:47:50.835Z,28.97
2017-12-08T02:50:17.007Z,19.73
2017-12-08T02:52:43.201Z,35.77
2017-12-08T02:55:09.509Z,24.93
2017-12-08T02:57:35.975Z,31.40
2017-12-08T03:00:02.173Z,31.87
2017-12-08T03:02:28.389Z,24.47
2017-12-08T03:04:55.385Z,25.77
2017-12-08T03:07:21.591Z,35.13
2017-12-08T03:09:48.558Z,22.60
2017-12-08T03:12:15.506Z,23.77
2017-12-08T03:14:42.451Z,24.70
2017-12-08T03:17:09.446Z,19.20
2017-12-08T03:19:35.686Z,22.30
2017-12-08T03:22:01.913Z,31.70
2017-12-08T03:24:28.127Z,27.67
2017-12-08T03:26:54.312Z,27.17
2017-12-08T03:29:20.511Z,34.73
2017-12-08T03:31:46.763Z,20.67
2017-12-08T03:34:12.972Z,19.77
2017-12-08T03:36:39.178Z,17.70
2017-12-08T03:39:05.380Z,31.43
2017-12-08T03:41:31.617Z,26.90
2017-12-08T03:43:57.820Z,17.23
2017-12-08T03:46:24.821Z,15.57
2017-12-08T03:48:51.030Z,36.80
2017-12-08T03:51:17.277Z,20.83
2017-12-08T03:53:43.505Z,23.00
2017-12-08T03:56:13.108Z,19.97
2017-12-08T03:58:39.497Z,21.07
2017-12-08T04:01:12.745Z,23.47
2017-12-08T04:03:38.960Z,22.70
2017-12-08T04:06:05.168Z,24.37
2017-12-08T04:08:31.397Z,21.87
2017-12-08T04:10:58.326Z,31.77
2017-12-08T04:13:24.565Z,24.50
2017-12-08T04:15:50.752Z,20.63
2017-12-08T04:18:16.945Z,13.23
2017-12-08T04:20:43.899Z,20.03
2017-12-08T04:23:10.824Z,24.57
2017-12-08T04:25:37.047Z,22.73
2017-12-08T04:28:03.268Z,28.60
2017-12-08T04:30:29.496Z,16.70
2017-12-08T04:32:55.680Z,32.07
2017-12-08T04:35:22.613Z,29.67
2017-12-08T04:37:49.568Z,25.03
2017-12-08T04:40:16.514Z,23.30
2017-12-08T04:42:49.795Z,18.77
2017-12-08T04:45:15.986Z,24.93
2017-12-08T04:47:42.211Z,29.30
2017-12-08T04:50:08.442Z,22.30
2017-12-08T04:52:34.653Z,17.23
2017-12-08T04:55:00.840Z,34.53
2017-12-08T04:57:27.108Z,22.77
2017-12-08T04:59:54.224Z,18.57
2017-12-08T05:02:20.446Z,26.30
2017-12-08T05:04:47.550Z,13.47
2017-12-08T05:07:13.768Z,16.57
2017-12-08T05:09:39.964Z,29.83
2017-12-08T05:12:07.780Z,22.93
2017-12-08T05:14:33.998Z,23.90
2017-12-08T05:17:00.211Z,21.53
2017-12-08T05:19:26.404Z,22.53
2017-12-08T05:21:52.591Z,21.00
2017-12-08T05:24:18.791Z,17.13
2017-12-08T05:26:45.734Z,11.37
2017-12-08T05:29:12.695Z,13.07
2017-12-08T05:31:38.909Z,13.93
2017-12-08T05:34:05.105Z,21.93
2017-12-08T05:36:31.280Z,22.80
2017-12-08T05:38:58.276Z,18.33
2017-12-08T05:41:24.563Z,14.17
2017-12-08T05:43:50.787Z,26.10
2017-12-08T05:46:16.977Z,19.90
2017-12-08T05:48:43.181Z,14.13
2017-12-08T05:51:10.096Z,13.33
2017-12-08T05:53:36.294Z,15.93
2017-12-08T05:56:02.554Z,10.57
2017-12-08T05:58:28.843Z,10.60
2017-12-08T06:00:55.176Z,12.03
2017-12-08T06:03:22.108Z,9.50
2017-12-08T06:05:49.092Z,15.57
2017-12-08T06:08:15.313Z,14.97
2017-12-08T06:10:42.269Z,15.23
2017-12-08T06:13:08.488Z,24.27
2017-12-08T06:15:35.415Z,15.13
2017-12-08T06:18:01.620Z,6.73
2017-12-08T06:20:27.876Z,12.63
2017-12-08T06:22:54.855Z,7.80
2017-12-08T06:25:21.828Z,12.33
2017-12-08T06:27:48.796Z,15.97
2017-12-08T06:30:14.979Z,6.37
2017-12-08T06:32:41.926Z,18.27
2017-12-08T06:35:08.945Z,11.67
2017-12-08T06:37:35.197Z,5.27
2017-12-08T06:40:01.422Z,12.90
2017-12-08T06:42:27.632Z,8.43
2017-12-08T06:44:53.864Z,6.97
2017-12-08T06:47:20.111Z,7.33
2017-12-08T06:49:46.762Z,6.20
2017-12-08T06:52:12.989Z,11.10
2017-12-08T06:54:39.198Z,7.00
2017-12-08T06:57:06.133Z,2.10
2017-12-08T06:59:33.129Z,4.63
2017-12-08T07:01:59.539Z,1.63
2017-12-08T07:04:25.765Z,0.87
2017-12-08T07:06:59.029Z,1.67
2017-12-08T07:09:25.249Z,19.73
2017-12-08T07:11:51.529Z,1.80
2017-12-08T07:14:18.465Z,1.30
2017-12-08T07:16:45.529Z,2.70
2017-12-08T07:19:11.753Z,2.83
2017-12-08T07:21:37.959Z,5.43
2017-12-08T07:24:04.193Z,1.40
2017-12-08T07:26:30.402Z,2.20
2017-12-08T07:28:56.592Z,8.47
2017-12-08T07:31:23.580Z,3.53
2017-12-08T07:33:49.765Z,4.20
2017-12-08T07:36:15.941Z,8.33
2017-12-08T07:38:42.156Z,3.33
2017-12-08T07:41:08.394Z,4.10
2017-12-08T07:43:35.315Z,5.13
2017-12-08T07:46:01.509Z,5.63
2017-12-08T07:48:27.699Z,2.13
2017-12-08T07:50:53.896Z,3.37
2017-12-08T07:53:20.917Z,4.53
2017-12-08T07:55:47.800Z,2.73
2017-12-08T07:58:14.008Z,2.97
2017-12-08T08:00:40.300Z,2.80
2017-12-08T08:03:06.588Z,11.67
2017-12-08T08:05:32.788Z,8.67
2017-12-08T08:07:59.784Z,3.57
2017-12-08T08:10:25.961Z,7.37
2017-12-08T08:12:52.929Z,4.20
2017-12-08T08:15:26.035Z,7.63
2017-12-08T08:17:52.309Z,6.50
2017-12-08T08:20:18.520Z,3.90
2017-12-08T08:22:44.722Z,19.87
2017-12-08T08:25:11.628Z,5.90
2017-12-08T08:27:37.836Z,6.70
2017-12-08T08:30:04.084Z,4.50
2017-12-08T08:32:30.265Z,5.17
2017-12-08T08:34:57.205Z,12.77
2017-12-08T08:37:23.425Z,6.10
2017-12-08T08:39:50.453Z,8.37
2017-12-08T08:42:18.896Z,4.53
2017-12-08T08:44:48.430Z,5.73
2017-12-08T08:47:14.937Z,8.30
2017-12-08T08:49:41.175Z,5.60
2017-12-08T08:52:08.137Z,10.97
2017-12-08T08:54:35.082Z,3.20
2017-12-08T08:57:01.321Z,6.27
2017-12-08T08:59:28.302Z,8.73
2017-12-08T09:01:55.366Z,4.50
2017-12-08T09:04:22.413Z,7.53
2017-12-08T09:06:48.694Z,4.70
2017-12-08T09:09:14.885Z,2.83
2017-12-08T09:11:41.136Z,16.20
2017-12-08T09:14:10.044Z,5.27
2017-12-08T09:16:37.645Z,8.77
2017-12-08T09:19:04.691Z,3.80
2017-12-08T09:21:31.037Z,5.40
2017-12-08T09:23:57.958Z,2.50
2017-12-08T09:26:24.141Z,4.20
2017-12-08T09:28:50.378Z,7.40
2017-12-08T09:31:16.568Z,5.27
2017-12-08T09:33:43.052Z,5.97
2017-12-08T09:36:10.165Z,6.90
2017-12-08T09:38:36.381Z,5.10
2017-12-08T09:41:02.589Z,3.60
2017-12-08T09:43:28.827Z,2.57
2017-12-08T09:45:55.026Z,3.10
2017-12-08T09:48:25.760Z,5.33
2017-12-08T09:50:54.501Z,2.00
2017-12-08T09:53:20.835Z,2.50
2017-12-08T09:55:47.060Z,3.07
2017-12-08T09:58:13.287Z,4.87
2017-12-08T10:00:39.590Z,3.50
2017-12-08T10:03:05.911Z,4.10
2017-12-08T10:05:32.400Z,3.73
2017-12-08T10:07:58.616Z,3.27
2017-12-08T10:10:24.848Z,2.53
2017-12-08T10:12:51.195Z,3.03
2017-12-08T10:15:17.412Z,4.47
2017-12-08T10:17:43.623Z,3.60
2017-12-08T10:20:10.569Z,3.17
2017-12-08T10:22:36.772Z,6.10
2017-12-08T10:25:03.084Z,3.83
2017-12-08T10:27:29.301Z,2.40
2017-12-08T10:29:56.226Z,4.33
2017-12-08T10:32:23.570Z,2.17
2017-12-08T10:34:50.660Z,5.43
2017-12-08T10:37:17.603Z,4.03
2017-12-08T10:39:44.528Z,6.63
2017-12-08T10:42:10.777Z,4.80
2017-12-08T10:44:37.780Z,6.20
2017-12-08T10:47:04.036Z,5.03
2017-12-08T10:49:30.247Z,8.70
2017-12-08T10:51:56.443Z,3.43
2017-12-08T10:54:22.704Z,4.73
2017-12-08T10:56:48.945Z,3.33
2017-12-08T10:59:17.953Z,3.20
2017-12-08T11:01:44.836Z,5.30
2017-12-08T11:04:11.978Z,2.33
2017-12-08T11:06:38.411Z,1.57
2017-12-08T11:09:05.580Z,8.60
2017-12-08T11:11:31.780Z,3.20
2017-12-08T11:13:57.989Z,8.33
2017-12-08T11:16:24.169Z,3.80
2017-12-08T11:18:50.397Z,1.70
2017-12-08T11:21:16.606Z,4.70
2017-12-08T11:23:42.800Z,1.03
2017-12-08T11:26:09.740Z,0.93
2017-12-08T11:28:35.984Z,0.90
2017-12-08T11:31:02.917Z,1.13
2017-12-08T11:33:29.132Z,2.53
2017-12-08T11:35:55.361Z,0.90
2017-12-08T11:38:21.583Z,1.27
2017-12-08T11:40:47.802Z,0.80
2017-12-08T11:43:14.731Z,0.80
2017-12-08T11:45:41.660Z,2.10
2017-12-08T11:48:07.902Z,1.43
2017-12-08T11:50:34.177Z,40.83
2017-12-08T11:53:00.472Z,7.70
2017-12-08T11:55:27.495Z,4.13
2017-12-08T11:57:53.746Z,2.90
2017-12-08T12:00:20.740Z,1.80
2017-12-08T12:02:46.988Z,2.05
2017-12-08T12:05:13.571Z,1.92
2017-12-08T12:07:39.995Z,2.30
2017-12-08T12:10:07.202Z,2.43
2017-12-08T12:12:33.413Z,3.37
2017-12-08T12:14:59.610Z,2.53
2017-12-08T12:17:25.829Z,3.00
2017-12-08T12:19:52.007Z,3.03
2017-12-08T12:22:18.996Z,3.40
2017-12-08T12:24:45.960Z,2.00
2017-12-08T12:27:12.168Z,2.20
2017-12-08T12:29:38.390Z,5.93
2017-12-08T12:32:04.625Z,2.35
2017-12-08T12:34:30.870Z,2.80
2017-12-08T12:36:57.839Z,2.00
2017-12-08T12:39:24.799Z,1.80
2017-12-08T12:41:51.028Z,5.85
2017-12-08T12:44:17.216Z,17.05
2017-12-08T12:46:43.469Z,24.17
2017-12-08T12:49:09.686Z,2.37
2017-12-08T12:51:35.870Z,2.37
2017-12-08T12:54:02.106Z,3.17
2017-12-08T12:56:28.297Z,2.90
2017-12-08T12:58:55.281Z,3.40
2017-12-08T13:01:22.201Z,5.20
2017-12-08T13:03:49.144Z,3.97
2017-12-08T13:06:15.425Z,3.50
2017-12-08T13:08:41.821Z,3.27
2017-12-08T13:11:08.155Z,5.47
2017-12-08T13:13:35.116Z,2.72
2017-12-08T13:16:02.103Z,2.90
2017-12-08T13:18:28.326Z,5.03
2017-12-08T13:20:54.537Z,2.93
2017-12-08T13:23:20.765Z,2.57
2017-12-08T13:25:46.964Z,1.87
2017-12-08T13:28:13.200Z,1.90
2017-12-08T13:30:40.171Z,3.37
2017-12-08T13:33:06.414Z,7.10
2017-12-08T13:35:33.409Z,3.70
2017-12-08T13:38:00.392Z,5.12
2017-12-08T13:40:26.600Z,5.00
2017-12-08T13:42:52.817Z,5.05
2017-12-08T13:45:19.024Z,6.45
2017-12-08T13:47:45.267Z,5.35
2017-12-08T13:50:11.614Z,6.07
2017-12-08T13:52:38.573Z,5.07
2017-12-08T13:55:17.188Z,5.45
2017-12-08T13:57:44.202Z,5.65
2017-12-08T14:00:11.546Z,6.53
2017-12-08T14:02:37.717Z,5.40
2017-12-08T14:05:03.968Z,3.80
2017-12-08T14:07:30.239Z,7.28
2017-12-08T14:09:56.612Z,3.42
2017-12-08T14:12:23.592Z,3.00
2017-12-08T14:14:50.519Z,3.95
2017-12-08T14:17:16.721Z,3.03
2017-12-08T14:19:42.953Z,3.93
2017-12-08T14:22:09.221Z,2.90
2017-12-08T14:24:35.495Z,3.60
2017-12-08T14:27:02.493Z,3.00
2017-12-08T14:29:28.824Z,4.57
2017-12-08T14:31:55.034Z,8.23
2017-12-08T14:34:22.086Z,9.70
2017-12-08T14:36:48.387Z,8.10
2017-12-08T14:39:15.324Z,4.50
2017-12-08T14:41:41.556Z,5.90
2017-12-08T14:44:07.815Z,3.57
2017-12-08T14:46:34.752Z,8.63
2017-12-08T14:49:00.984Z,3.03
2017-12-08T14:51:27.246Z,7.03
2017-12-08T14:53:54.158Z,8.80
2017-12-08T14:56:20.468Z,5.93
2017-12-08T14:58:46.709Z,3.00
2017-12-08T15:01:13.802Z,3.20
2017-12-08T15:03:40.073Z,3.67
2017-12-08T15:06:06.293Z,4.03
2017-12-08T15:08:32.564Z,4.37
2017-12-08T15:10:58.994Z,3.97
2017-12-08T15:13:25.186Z,3.30
2017-12-08T15:15:51.491Z,6.20
2017-12-08T15:18:17.719Z,3.50
2017-12-08T15:20:43.946Z,3.07
2017-12-08T15:23:10.157Z,3.37
2017-12-08T15:25:36.410Z,3.40
2017-12-08T15:28:02.620Z,4.28
2017-12-08T15:30:28.889Z,3.60
2017-12-08T15:32:55.139Z,3.80
2017-12-08T15:35:21.324Z,2.80
2017-12-08T15:37:47.532Z,3.47
2017-12-08T15:40:13.740Z,10.03
2017-12-08T15:42:40.007Z,2.03
2017-12-08T15:45:06.978Z,3.73
2017-12-08T15:47:33.181Z,1.77
2017-12-08T15:50:10.075Z,4.65
2017-12-08T15:52:37.040Z,2.03
2017-12-08T15:55:03.239Z,1.90
2017-12-08T15:57:29.521Z,2.20
2017-12-08T15:59:55.748Z,5.47
2017-12-08T16:02:21.984Z,2.15
2017-12-08T16:04:48.351Z,4.83
2017-12-08T16:07:14.785Z,4.20
2017-12-08T16:09:41.153Z,2.90
2017-12-08T16:12:07.744Z,2.40
2017-12-08T16:14:34.836Z,2.67
2017-12-08T16:17:01.110Z,6.77
2017-12-08T16:19:27.391Z,5.57
2017-12-08T16:21:53.670Z,2.58
2017-12-08T16:24:19.912Z,3.10
2017-12-08T16:26:46.161Z,3.73
2017-12-08T16:29:12.486Z,3.92
2017-12-08T16:31:38.737Z,3.50
2017-12-08T16:34:05.699Z,3.35
2017-12-08T16:36:31.940Z,3.55
2017-12-08T16:38:58.292Z,3.92
2017-12-08T16:41:24.519Z,5.30
2017-12-08T16:43:50.812Z,5.25
2017-12-08T16:46:17.817Z,9.05
2017-12-08T16:48:44.052Z,6.87
2017-12-08T16:51:10.293Z,6.90
2017-12-08T16:53:36.509Z,8.37
2017-12-08T16:56:02.743Z,9.25
2017-12-08T16:58:28.957Z,10.98
2017-12-08T17:00:55.257Z,10.55
2017-12-08T17:03:22.226Z,10.52
2017-12-08T17:05:48.546Z,12.43
2017-12-08T17:08:15.534Z,25.48
2017-12-08T17:10:41.834Z,22.05
2017-12-08T17:13:08.337Z,16.92
2017-12-08T17:15:34.568Z,17.83
2017-12-08T17:18:00.841Z,15.02
2017-12-08T17:20:27.845Z,17.40
2017-12-08T17:22:54.020Z,18.77
2017-12-08T17:25:20.235Z,14.50
2017-12-08T17:27:46.477Z,13.77
2017-12-08T17:30:12.952Z,16.12
2017-12-08T17:32:39.130Z,21.42
2017-12-08T17:35:05.383Z,14.60
2017-12-08T17:37:33.451Z,20.80
2017-12-08T17:40:01.065Z,12.65
2017-12-08T17:42:28.021Z,14.90
2017-12-08T17:44:54.792Z,19.77
2017-12-08T17:47:21.531Z,14.70
2017-12-08T17:49:47.775Z,20.67
2017-12-08T17:52:15.772Z,12.57
2017-12-08T17:54:41.981Z,14.63
2017-12-08T17:57:08.274Z,12.18
2017-12-08T17:59:35.256Z,10.85
2017-12-08T18:02:01.486Z,24.35
2017-12-08T18:04:27.732Z,14.77
2017-12-08T18:06:53.953Z,32.85
2017-12-08T18:09:21.019Z,19.57
2017-12-08T18:11:47.519Z,12.48
2017-12-08T18:14:14.040Z,13.70
2017-12-08T18:16:41.797Z,17.48
2017-12-08T18:19:08.647Z,10.80
2017-12-08T18:21:34.917Z,9.02
2017-12-08T18:24:01.996Z,13.82
2017-12-08T18:26:29.024Z,10.88
2017-12-08T18:28:55.320Z,9.77
2017-12-08T18:31:21.545Z,16.80
2017-12-08T18:33:48.728Z,10.65
2017-12-08T18:36:14.980Z,10.95
2017-12-08T18:38:41.929Z,14.55
2017-12-08T18:41:09.008Z,7.93
2017-12-08T18:43:35.995Z,17.05
2017-12-08T18:46:02.249Z,6.78
2017-12-08T18:48:29.305Z,26.48
2017-12-08T18:50:55.524Z,8.00
2017-12-08T18:53:21.752Z,6.97
2017-12-08T18:55:48.729Z,15.10
2017-12-08T18:58:14.959Z,11.05
2017-12-08T19:00:41.154Z,9.18
2017-12-08T19:03:07.354Z,6.85
2017-12-08T19:05:34.310Z,12.57
2017-12-08T19:08:00.512Z,20.12
2017-12-08T19:10:26.712Z,12.13
2017-12-08T19:12:53.051Z,8.85
2017-12-08T19:15:19.442Z,15.65
2017-12-08T19:17:47.302Z,7.57
2017-12-08T19:20:13.506Z,20.25
2017-12-08T19:22:39.739Z,15.00
2017-12-08T19:25:05.988Z,7.37
2017-12-08T19:27:32.205Z,11.38
2017-12-08T19:29:59.193Z,9.18
2017-12-08T19:32:25.417Z,14.07
2017-12-08T19:34:51.597Z,7.18
2017-12-08T19:37:17.960Z,5.10
2017-12-08T19:39:44.183Z,12.65
2017-12-08T19:42:10.387Z,8.98
2017-12-08T19:44:36.635Z,15.07
2017-12-08T19:47:03.632Z,13.10
2017-12-08T19:49:30.679Z,15.82
2017-12-08T19:51:57.058Z,10.68
2017-12-08T19:54:24.037Z,16.87
2017-12-08T19:56:50.259Z,14.30
2017-12-08T19:59:17.237Z,8.25
2017-12-08T20:01:43.499Z,11.57
2017-12-08T20:04:09.735Z,8.18
2017-12-08T20:06:35.976Z,10.20
2017-12-08T20:09:02.390Z,11.00
2017-12-08T20:11:28.729Z,6.37
2017-12-08T20:13:55.260Z,20.83
2017-12-08T20:16:21.753Z,13.25
2017-12-08T20:18:48.113Z,15.85
2017-12-08T20:21:14.393Z,11.18
2017-12-08T20:23:41.501Z,12.93
2017-12-08T20:26:08.431Z,10.65
2017-12-08T20:28:34.616Z,13.02
2017-12-08T20:31:00.896Z,14.07
2017-12-08T20:33:27.092Z,22.58
2017-12-08T20:35:53.356Z,11.63
2017-12-08T20:38:21.351Z,11.02
2017-12-08T20:40:52.397Z,11.88
2017-12-08T20:43:19.168Z,9.23
2017-12-08T20:45:45.966Z,13.20
2017-12-08T20:48:12.241Z,11.12
2017-12-08T20:50:39.218Z,16.23
2017-12-08T20:53:06.249Z,14.13
2017-12-08T20:55:33.281Z,11.17
2017-12-08T20:57:59.712Z,12.37
2017-12-08T21:00:25.996Z,11.48
2017-12-08T21:02:53.063Z,5.70
2017-12-08T21:05:20.193Z,5.20
2017-12-08T21:07:46.618Z,10.43
2017-12-08T21:10:13.377Z,7.00
2017-12-08T21:12:39.782Z,10.70
2017-12-08T21:15:06.349Z,11.55
2017-12-08T21:17:33.139Z,8.00
2017-12-08T21:19:59.652Z,9.40
2017-12-08T21:22:27.615Z,15.27
2017-12-08T21:24:53.849Z,8.00
2017-12-08T21:27:20.857Z,9.25
2017-12-08T21:29:47.105Z,10.05
2017-12-08T21:32:13.381Z,10.00
2017-12-08T21:34:40.401Z,10.90
2017-12-08T21:37:09.987Z,12.55
2017-12-08T21:39:38.078Z,13.45
2017-12-08T21:42:07.082Z,15.48
2017-12-08T21:44:59.718Z,14.00
2017-12-08T21:47:54.503Z,11.15
2017-12-08T21:56:34.486Z,12.25
2017-12-08T22:05:29.171Z,11.35
2017-12-08T22:07:59.146Z,14.48
2017-12-08T22:10:28.497Z,20.58
2017-12-08T22:12:55.746Z,15.35
2017-12-08T22:15:22.519Z,13.20
2017-12-08T22:17:48.942Z,14.55
2017-12-08T22:20:15.222Z,13.80
2017-12-08T22:22:46.552Z,11.95
2017-12-08T22:25:12.822Z,15.05
2017-12-08T22:27:40.500Z,12.48
2017-12-08T22:30:11.631Z,17.45
2017-12-08T22:32:38.205Z,14.93
2017-12-08T22:35:04.604Z,11.52
2017-12-08T22:37:31.193Z,10.85
2017-12-08T22:39:57.467Z,13.02
2017-12-08T22:42:23.793Z,15.48
2017-12-08T22:44:50.113Z,14.48
2017-12-08T22:47:17.128Z,13.60
2017-12-08T22:49:44.441Z,10.90
2017-12-08T22:52:11.521Z,11.85
2017-12-08T22:54:38.708Z,9.00
2017-12-08T22:57:05.720Z,13.82
2017-12-08T22:59:32.936Z,10.43
2017-12-08T23:01:59.961Z,16.20
2017-12-08T23:04:26.209Z,9.77
2017-12-08T23:06:52.542Z,15.35
2017-12-08T23:09:18.927Z,9.82
2017-12-08T23:11:45.327Z,13.40
2017-12-08T23:14:12.368Z,16.58
2017-12-08T23:16:40.089Z,13.38
2017-12-08T23:21:40.628Z,18.25
2017-12-08T23:24:06.963Z,12.43
2017-12-08T23:26:33.964Z,15.65
2017-12-08T23:29:00.247Z,12.45
2017-12-08T23:31:26.466Z,12.70
2017-12-08T23:33:52.910Z,12.93
2017-12-08T23:36:20.125Z,15.25
2017-12-08T23:38:46.396Z,20.90
2017-12-08T23:41:12.625Z,15.40
2017-12-08T23:43:39.788Z,13.38
2017-12-08T23:46:06.029Z,17.02
2017-12-08T23:48:32.292Z,17.20
2017-12-08T23:51:00.965Z,18.30
2017-12-08T23:53:27.258Z,17.00
2017-12-08T23:55:53.557Z,13.50
2017-12-08T23:58:21.252Z,17.25
